仁川, 大韓民國

2014年11月24日 13時47分 (GMT +0900)
Incheon International | Change Station
CLOSE
Current Station
機場
Location: Incheon,
海拔: 23 ft
附近的氣象站

海拔 23 ft 37.47 °N, 126.45 °E | Updated 17 minutes ago

Overcast
陰天
52 °F
感覺像 52 °F
7
風 變化 風 來自 東北

今日
高 -- | 低 -- °F
--% 降水機率
昨天
高 -- | 低 -- °F
Precip. -- 英寸
7:21 AM 5:17 PM
眉月, 3% visible
氣壓 30.12 英寸
能見度 6.2 英里
多雲 少數 4000 ft
陰天 13000 ft
露點 23 °F
濕度 33%
降雨量 0.00 英寸
積雪深度 不適用。
紫外線 1 / 12
花粉 不適用。
空氣質素 不適用。
Flu Activity 不適用。
METAR RKSI 240430Z 04006KT 9999 FEW040 OVC130 11/M05 Q1020 NOSIG

More Conditions Fewer Conditions

氣壓 30.12 英寸
能見度 6.2 英里
多雲 少數 4000 ft
陰天 13000 ft
露點 23 °F
濕度 33%
降雨量 0.00 英寸
積雪深度 不適用。
紫外線 1 / 12
花粉 不適用。
空氣質素 不適用。
Flu Activity 不適用。
METAR RKSI 240430Z 04006KT 9999 FEW040 OVC130 11/M05 Q1020 NOSIG

More Conditions Fewer Conditions

10-Day Weather Forecast

Almanac

天文

Nov. 24, 2014 昇起 降落
實際時間
民用曙暮光
航海曙暮光
天文學微明
月亮
可見光的長度
白晝時間
Tomorrow will be .
, % of the Moon is Illuminated

今天之最

國家高溫 國家低溫

Community

WunderPhotos

Upload Photos

1,773,267 照片已上傳!

WunderBlogs® & News

Nearby

空氣質素

  空氣質素 空氣質素指數 污染物
Not available.

積雪量

Station 深度 海拔

地震活動

城市 距離 時間和日期
顯示的最小幅度是2.5。

沿海水溫

地點 溫度

附近的氣象站